sensor_id;sensor_type;location;lat;lon;timestamp;P1;durP1;ratioP1;P2;durP2;ratioP2
65375;SDS011;51976;47.332;9.404;2023-07-29T00:00:35;2.42;;;1.30;;
65375;SDS011;51976;47.332;9.404;2023-07-29T00:03:01;3.47;;;1.50;;
65375;SDS011;51976;47.332;9.404;2023-07-29T00:05:26;2.95;;;1.42;;
65375;SDS011;51976;47.332;9.404;2023-07-29T00:07:51;2.92;;;1.55;;
65375;SDS011;51976;47.332;9.404;2023-07-29T00:10:17;2.70;;;1.40;;
65375;SDS011;51976;47.332;9.404;2023-07-29T00:12:42;2.35;;;1.63;;
65375;SDS011;51976;47.332;9.404;2023-07-29T00:15:08;2.78;;;1.65;;
65375;SDS011;51976;47.332;9.404;2023-07-29T00:17:34;2.00;;;1.40;;
65375;SDS011;51976;47.332;9.404;2023-07-29T00:19:59;2.72;;;1.58;;
65375;SDS011;51976;47.332;9.404;2023-07-29T00:22:24;2.88;;;1.48;;
65375;SDS011;51976;47.332;9.404;2023-07-29T00:24:53;3.25;;;1.70;;
65375;SDS011;51976;47.332;9.404;2023-07-29T00:27:20;2.70;;;1.63;;
65375;SDS011;51976;47.332;9.404;2023-07-29T00:29:45;4.00;;;1.55;;
65375;SDS011;51976;47.332;9.404;2023-07-29T00:32:10;3.75;;;1.50;;
65375;SDS011;51976;47.332;9.404;2023-07-29T00:34:36;2.83;;;1.60;;
65375;SDS011;51976;47.332;9.404;2023-07-29T00:37:01;2.60;;;1.50;;
65375;SDS011;51976;47.332;9.404;2023-07-29T00:39:26;2.38;;;1.50;;
65375;SDS011;51976;47.332;9.404;2023-07-29T00:41:52;1.90;;;1.40;;
65375;SDS011;51976;47.332;9.404;2023-07-29T00:44:17;2.13;;;1.50;;
65375;SDS011;51976;47.332;9.404;2023-07-29T00:46:43;2.75;;;1.50;;
65375;SDS011;51976;47.332;9.404;2023-07-29T00:49:10;2.92;;;1.70;;
65375;SDS011;51976;47.332;9.404;2023-07-29T00:51:36;3.47;;;1.45;;
65375;SDS011;51976;47.332;9.404;2023-07-29T00:54:01;1.95;;;1.50;;
65375;SDS011;51976;47.332;9.404;2023-07-29T00:56:27;2.90;;;1.70;;
65375;SDS011;51976;47.332;9.404;2023-07-29T00:58:52;2.05;;;1.40;;
65375;SDS011;51976;47.332;9.404;2023-07-29T01:01:23;2.42;;;1.40;;
65375;SDS011;51976;47.332;9.404;2023-07-29T01:03:49;2.42;;;1.60;;
65375;SDS011;51976;47.332;9.404;2023-07-29T01:06:21;2.67;;;1.80;;
65375;SDS011;51976;47.332;9.404;2023-07-29T01:09:10;1.80;;;1.45;;
65375;SDS011;51976;47.332;9.404;2023-07-29T01:12:01;1.70;;;1.27;;
65375;SDS011;51976;47.332;9.404;2023-07-29T01:14:54;4.25;;;1.50;;
65375;SDS011;51976;47.332;9.404;2023-07-29T01:17:30;2.15;;;1.40;;
65375;SDS011;51976;47.332;9.404;2023-07-29T01:20:04;3.53;;;1.70;;
65375;SDS011;51976;47.332;9.404;2023-07-29T01:22:33;4.32;;;1.70;;
65375;SDS011;51976;47.332;9.404;2023-07-29T01:25:00;2.13;;;1.60;;
65375;SDS011;51976;47.332;9.404;2023-07-29T01:27:25;2.92;;;1.60;;
65375;SDS011;51976;47.332;9.404;2023-07-29T01:29:52;3.15;;;1.60;;
65375;SDS011;51976;47.332;9.404;2023-07-29T01:32:21;3.17;;;1.67;;
65375;SDS011;51976;47.332;9.404;2023-07-29T01:35:01;2.65;;;1.63;;
65375;SDS011;51976;47.332;9.404;2023-07-29T01:37:34;2.38;;;1.45;;
65375;SDS011;51976;47.332;9.404;2023-07-29T01:40:02;2.60;;;1.70;;
65375;SDS011;51976;47.332;9.404;2023-07-29T01:42:29;2.47;;;1.75;;
65375;SDS011;51976;47.332;9.404;2023-07-29T01:44:56;4.70;;;1.67;;
65375;SDS011;51976;47.332;9.404;2023-07-29T01:47:21;3.10;;;1.48;;
65375;SDS011;51976;47.332;9.404;2023-07-29T01:49:47;4.72;;;1.80;;
65375;SDS011;51976;47.332;9.404;2023-07-29T01:52:13;2.38;;;1.67;;
65375;SDS011;51976;47.332;9.404;2023-07-29T01:54:38;3.72;;;1.70;;
65375;SDS011;51976;47.332;9.404;2023-07-29T01:57:04;3.10;;;1.63;;
65375;SDS011;51976;47.332;9.404;2023-07-29T01:59:29;3.42;;;1.70;;
65375;SDS011;51976;47.332;9.404;2023-07-29T02:01:54;4.88;;;2.00;;
65375;SDS011;51976;47.332;9.404;2023-07-29T02:04:20;3.92;;;1.88;;
65375;SDS011;51976;47.332;9.404;2023-07-29T02:06:45;3.10;;;1.85;;
65375;SDS011;51976;47.332;9.404;2023-07-29T02:09:11;4.28;;;1.80;;
65375;SDS011;51976;47.332;9.404;2023-07-29T02:11:36;2.90;;;1.90;;
65375;SDS011;51976;47.332;9.404;2023-07-29T02:14:01;4.03;;;1.88;;
65375;SDS011;51976;47.332;9.404;2023-07-29T02:16:27;4.03;;;1.90;;
65375;SDS011;51976;47.332;9.404;2023-07-29T02:18:52;5.07;;;2.00;;
65375;SDS011;51976;47.332;9.404;2023-07-29T02:21:18;2.00;;;1.60;;
65375;SDS011;51976;47.332;9.404;2023-07-29T02:23:43;2.78;;;2.00;;
65375;SDS011;51976;47.332;9.404;2023-07-29T02:26:09;2.92;;;1.70;;
65375;SDS011;51976;47.332;9.404;2023-07-29T02:28:34;3.30;;;1.83;;
65375;SDS011;51976;47.332;9.404;2023-07-29T02:31:09;3.05;;;1.80;;
65375;SDS011;51976;47.332;9.404;2023-07-29T02:33:37;3.60;;;1.88;;
65375;SDS011;51976;47.332;9.404;2023-07-29T02:36:02;4.50;;;2.55;;
65375;SDS011;51976;47.332;9.404;2023-07-29T02:38:28;2.58;;;1.98;;
65375;SDS011;51976;47.332;9.404;2023-07-29T02:40:53;3.38;;;1.70;;
65375;SDS011;51976;47.332;9.404;2023-07-29T02:43:18;5.15;;;2.25;;
65375;SDS011;51976;47.332;9.404;2023-07-29T02:45:44;2.88;;;1.98;;
65375;SDS011;51976;47.332;9.404;2023-07-29T02:48:09;3.03;;;1.90;;
65375;SDS011;51976;47.332;9.404;2023-07-29T02:50:34;2.72;;;2.00;;
65375;SDS011;51976;47.332;9.404;2023-07-29T02:53:00;3.53;;;2.05;;
65375;SDS011;51976;47.332;9.404;2023-07-29T02:55:26;3.97;;;1.92;;
65375;SDS011;51976;47.332;9.404;2023-07-29T02:57:52;3.00;;;2.00;;
65375;SDS011;51976;47.332;9.404;2023-07-29T03:00:17;3.03;;;1.85;;
65375;SDS011;51976;47.332;9.404;2023-07-29T03:02:42;3.30;;;2.15;;
65375;SDS011;51976;47.332;9.404;2023-07-29T03:05:08;4.35;;;2.20;;
65375;SDS011;51976;47.332;9.404;2023-07-29T03:07:33;2.67;;;2.05;;
65375;SDS011;51976;47.332;9.404;2023-07-29T03:09:59;3.85;;;2.10;;
65375;SDS011;51976;47.332;9.404;2023-07-29T03:12:24;3.65;;;2.10;;
65375;SDS011;51976;47.332;9.404;2023-07-29T03:14:50;3.60;;;2.30;;
65375;SDS011;51976;47.332;9.404;2023-07-29T03:17:15;4.28;;;2.33;;
65375;SDS011;51976;47.332;9.404;2023-07-29T03:19:40;4.15;;;2.10;;
65375;SDS011;51976;47.332;9.404;2023-07-29T03:22:06;3.75;;;1.95;;
65375;SDS011;51976;47.332;9.404;2023-07-29T03:24:32;3.90;;;2.00;;
65375;SDS011;51976;47.332;9.404;2023-07-29T03:26:57;2.88;;;2.13;;
65375;SDS011;51976;47.332;9.404;2023-07-29T03:29:23;5.70;;;2.30;;
65375;SDS011;51976;47.332;9.404;2023-07-29T03:31:48;3.65;;;1.85;;
65375;SDS011;51976;47.332;9.404;2023-07-29T03:34:13;3.83;;;2.40;;
65375;SDS011;51976;47.332;9.404;2023-07-29T03:36:39;3.47;;;1.92;;
65375;SDS011;51976;47.332;9.404;2023-07-29T03:39:05;2.97;;;2.03;;
65375;SDS011;51976;47.332;9.404;2023-07-29T03:41:30;5.15;;;2.30;;
65375;SDS011;51976;47.332;9.404;2023-07-29T03:43:56;5.13;;;3.03;;
65375;SDS011;51976;47.332;9.404;2023-07-29T03:46:21;4.97;;;2.53;;
65375;SDS011;51976;47.332;9.404;2023-07-29T03:48:47;6.68;;;2.83;;
65375;SDS011;51976;47.332;9.404;2023-07-29T03:51:13;5.25;;;3.28;;
65375;SDS011;51976;47.332;9.404;2023-07-29T03:53:38;5.57;;;3.20;;
65375;SDS011;51976;47.332;9.404;2023-07-29T03:56:03;4.18;;;2.63;;
65375;SDS011;51976;47.332;9.404;2023-07-29T03:58:29;4.53;;;2.78;;
65375;SDS011;51976;47.332;9.404;2023-07-29T04:00:54;3.30;;;2.15;;
65375;SDS011;51976;47.332;9.404;2023-07-29T04:03:20;4.45;;;2.20;;
65375;SDS011;51976;47.332;9.404;2023-07-29T04:05:45;4.68;;;2.50;;
65375;SDS011;51976;47.332;9.404;2023-07-29T04:08:10;3.25;;;2.38;;
65375;SDS011;51976;47.332;9.404;2023-07-29T04:10:36;5.13;;;2.30;;
65375;SDS011;51976;47.332;9.404;2023-07-29T04:13:02;5.60;;;2.65;;
65375;SDS011;51976;47.332;9.404;2023-07-29T04:15:28;3.75;;;2.40;;
65375;SDS011;51976;47.332;9.404;2023-07-29T04:17:54;3.72;;;2.80;;
65375;SDS011;51976;47.332;9.404;2023-07-29T04:20:20;3.97;;;2.67;;
65375;SDS011;51976;47.332;9.404;2023-07-29T04:22:45;5.88;;;2.35;;
65375;SDS011;51976;47.332;9.404;2023-07-29T04:25:10;3.83;;;2.78;;
65375;SDS011;51976;47.332;9.404;2023-07-29T04:27:37;3.85;;;2.50;;
65375;SDS011;51976;47.332;9.404;2023-07-29T04:30:03;4.18;;;2.80;;
65375;SDS011;51976;47.332;9.404;2023-07-29T04:32:28;3.83;;;2.63;;
65375;SDS011;51976;47.332;9.404;2023-07-29T04:34:54;4.20;;;2.70;;
65375;SDS011;51976;47.332;9.404;2023-07-29T04:37:19;3.85;;;2.45;;
65375;SDS011;51976;47.332;9.404;2023-07-29T04:39:44;4.80;;;2.60;;
65375;SDS011;51976;47.332;9.404;2023-07-29T04:42:10;4.38;;;2.60;;
65375;SDS011;51976;47.332;9.404;2023-07-29T04:44:35;4.60;;;2.60;;
65375;SDS011;51976;47.332;9.404;2023-07-29T04:47:01;5.03;;;2.70;;
65375;SDS011;51976;47.332;9.404;2023-07-29T04:49:26;5.82;;;2.95;;
65375;SDS011;51976;47.332;9.404;2023-07-29T04:51:52;6.38;;;2.75;;
65375;SDS011;51976;47.332;9.404;2023-07-29T04:54:17;4.03;;;2.45;;
65375;SDS011;51976;47.332;9.404;2023-07-29T04:56:45;4.03;;;2.65;;
65375;SDS011;51976;47.332;9.404;2023-07-29T04:59:11;3.92;;;3.10;;
65375;SDS011;51976;47.332;9.404;2023-07-29T05:01:37;4.30;;;2.75;;
65375;SDS011;51976;47.332;9.404;2023-07-29T05:04:03;6.22;;;2.97;;
65375;SDS011;51976;47.332;9.404;2023-07-29T05:06:29;4.47;;;3.08;;
65375;SDS011;51976;47.332;9.404;2023-07-29T05:08:54;4.57;;;2.53;;
65375;SDS011;51976;47.332;9.404;2023-07-29T05:11:22;4.15;;;3.08;;
65375;SDS011;51976;47.332;9.404;2023-07-29T05:13:47;4.57;;;3.08;;
65375;SDS011;51976;47.332;9.404;2023-07-29T05:16:13;4.03;;;3.10;;
65375;SDS011;51976;47.332;9.404;2023-07-29T05:18:38;4.15;;;2.58;;
65375;SDS011;51976;47.332;9.404;2023-07-29T05:21:03;5.35;;;2.60;;
65375;SDS011;51976;47.332;9.404;2023-07-29T05:23:29;3.45;;;2.45;;
65375;SDS011;51976;47.332;9.404;2023-07-29T05:25:54;7.32;;;2.72;;
65375;SDS011;51976;47.332;9.404;2023-07-29T05:28:19;4.00;;;2.83;;
65375;SDS011;51976;47.332;9.404;2023-07-29T05:30:45;5.90;;;2.97;;
65375;SDS011;51976;47.332;9.404;2023-07-29T05:33:10;3.90;;;2.70;;
65375;SDS011;51976;47.332;9.404;2023-07-29T05:35:36;5.30;;;2.80;;
65375;SDS011;51976;47.332;9.404;2023-07-29T05:38:02;5.55;;;3.10;;
65375;SDS011;51976;47.332;9.404;2023-07-29T05:40:28;3.60;;;2.58;;
65375;SDS011;51976;47.332;9.404;2023-07-29T05:42:54;3.70;;;2.50;;
65375;SDS011;51976;47.332;9.404;2023-07-29T05:45:19;4.60;;;2.40;;
65375;SDS011;51976;47.332;9.404;2023-07-29T05:47:45;5.47;;;3.00;;
65375;SDS011;51976;47.332;9.404;2023-07-29T05:50:10;5.53;;;2.80;;
65375;SDS011;51976;47.332;9.404;2023-07-29T05:52:36;5.78;;;2.90;;
65375;SDS011;51976;47.332;9.404;2023-07-29T05:55:02;6.88;;;3.10;;
65375;SDS011;51976;47.332;9.404;2023-07-29T05:57:27;4.10;;;2.60;;
65375;SDS011;51976;47.332;9.404;2023-07-29T05:59:53;4.85;;;2.75;;
65375;SDS011;51976;47.332;9.404;2023-07-29T06:02:18;4.93;;;2.60;;
65375;SDS011;51976;47.332;9.404;2023-07-29T06:04:44;5.18;;;2.88;;
65375;SDS011;51976;47.332;9.404;2023-07-29T06:07:09;3.45;;;2.33;;
65375;SDS011;51976;47.332;9.404;2023-07-29T06:09:34;3.05;;;2.40;;
65375;SDS011;51976;47.332;9.404;2023-07-29T06:12:00;5.70;;;2.40;;
65375;SDS011;51976;47.332;9.404;2023-07-29T06:14:25;4.43;;;2.90;;
65375;SDS011;51976;47.332;9.404;2023-07-29T06:16:51;4.28;;;2.83;;
65375;SDS011;51976;47.332;9.404;2023-07-29T06:19:17;5.82;;;2.72;;
65375;SDS011;51976;47.332;9.404;2023-07-29T06:21:43;4.95;;;3.08;;
65375;SDS011;51976;47.332;9.404;2023-07-29T06:24:09;3.80;;;2.75;;
65375;SDS011;51976;47.332;9.404;2023-07-29T06:26:34;4.03;;;2.80;;
65375;SDS011;51976;47.332;9.404;2023-07-29T06:28:59;3.40;;;2.53;;
65375;SDS011;51976;47.332;9.404;2023-07-29T06:31:25;5.78;;;2.97;;
65375;SDS011;51976;47.332;9.404;2023-07-29T06:33:50;3.47;;;2.65;;
65375;SDS011;51976;47.332;9.404;2023-07-29T06:36:16;3.67;;;2.60;;
65375;SDS011;51976;47.332;9.404;2023-07-29T06:38:41;5.88;;;2.83;;
65375;SDS011;51976;47.332;9.404;2023-07-29T06:41:07;3.95;;;2.60;;
65375;SDS011;51976;47.332;9.404;2023-07-29T06:43:32;4.07;;;2.47;;
65375;SDS011;51976;47.332;9.404;2023-07-29T06:45:58;4.13;;;3.22;;
65375;SDS011;51976;47.332;9.404;2023-07-29T06:48:23;4.97;;;2.63;;
65375;SDS011;51976;47.332;9.404;2023-07-29T06:50:49;4.78;;;3.17;;
65375;SDS011;51976;47.332;9.404;2023-07-29T06:53:15;5.60;;;3.03;;
65375;SDS011;51976;47.332;9.404;2023-07-29T06:55:41;4.05;;;3.00;;
65375;SDS011;51976;47.332;9.404;2023-07-29T06:58:06;4.47;;;2.90;;
65375;SDS011;51976;47.332;9.404;2023-07-29T07:00:32;7.38;;;3.10;;
65375;SDS011;51976;47.332;9.404;2023-07-29T07:02:58;4.28;;;2.70;;
65375;SDS011;51976;47.332;9.404;2023-07-29T07:05:23;4.05;;;2.78;;
65375;SDS011;51976;47.332;9.404;2023-07-29T07:07:48;4.85;;;3.22;;
65375;SDS011;51976;47.332;9.404;2023-07-29T07:10:14;4.63;;;2.50;;
65375;SDS011;51976;47.332;9.404;2023-07-29T07:12:39;5.55;;;2.95;;
65375;SDS011;51976;47.332;9.404;2023-07-29T07:15:05;7.15;;;3.00;;
65375;SDS011;51976;47.332;9.404;2023-07-29T07:17:31;4.63;;;3.00;;
65375;SDS011;51976;47.332;9.404;2023-07-29T07:19:56;5.03;;;2.75;;
65375;SDS011;51976;47.332;9.404;2023-07-29T07:22:21;4.75;;;2.50;;
65375;SDS011;51976;47.332;9.404;2023-07-29T07:24:47;4.32;;;2.80;;
65375;SDS011;51976;47.332;9.404;2023-07-29T07:27:12;4.35;;;2.90;;
65375;SDS011;51976;47.332;9.404;2023-07-29T07:29:37;2.92;;;2.20;;
65375;SDS011;51976;47.332;9.404;2023-07-29T07:32:03;3.03;;;2.55;;
65375;SDS011;51976;47.332;9.404;2023-07-29T07:34:28;3.17;;;2.33;;
65375;SDS011;51976;47.332;9.404;2023-07-29T07:36:54;3.33;;;2.55;;
65375;SDS011;51976;47.332;9.404;2023-07-29T07:39:19;4.00;;;2.70;;
65375;SDS011;51976;47.332;9.404;2023-07-29T07:41:45;3.83;;;2.90;;
65375;SDS011;51976;47.332;9.404;2023-07-29T07:44:10;3.40;;;2.80;;
65375;SDS011;51976;47.332;9.404;2023-07-29T07:46:40;6.90;;;3.80;;
65375;SDS011;51976;47.332;9.404;2023-07-29T07:49:05;4.80;;;3.45;;
65375;SDS011;51976;47.332;9.404;2023-07-29T07:51:31;4.88;;;3.55;;
65375;SDS011;51976;47.332;9.404;2023-07-29T07:53:56;5.55;;;3.35;;
65375;SDS011;51976;47.332;9.404;2023-07-29T07:56:22;4.78;;;3.40;;
65375;SDS011;51976;47.332;9.404;2023-07-29T07:58:47;4.78;;;3.20;;
65375;SDS011;51976;47.332;9.404;2023-07-29T08:01:12;3.55;;;3.00;;
65375;SDS011;51976;47.332;9.404;2023-07-29T08:03:38;5.03;;;3.55;;
65375;SDS011;51976;47.332;9.404;2023-07-29T08:06:03;6.20;;;4.05;;
65375;SDS011;51976;47.332;9.404;2023-07-29T08:08:29;5.45;;;4.00;;
65375;SDS011;51976;47.332;9.404;2023-07-29T08:10:55;5.93;;;3.40;;
65375;SDS011;51976;47.332;9.404;2023-07-29T08:13:22;4.65;;;3.53;;
65375;SDS011;51976;47.332;9.404;2023-07-29T08:15:48;5.50;;;3.97;;
65375;SDS011;51976;47.332;9.404;2023-07-29T08:18:15;8.35;;;3.90;;
65375;SDS011;51976;47.332;9.404;2023-07-29T08:20:41;6.50;;;3.90;;
65375;SDS011;51976;47.332;9.404;2023-07-29T08:23:06;6.18;;;3.25;;
65375;SDS011;51976;47.332;9.404;2023-07-29T08:25:32;4.60;;;3.70;;
65375;SDS011;51976;47.332;9.404;2023-07-29T08:27:57;5.07;;;3.85;;
65375;SDS011;51976;47.332;9.404;2023-07-29T08:30:22;5.15;;;3.22;;
65375;SDS011;51976;47.332;9.404;2023-07-29T08:32:48;7.63;;;3.30;;
65375;SDS011;51976;47.332;9.404;2023-07-29T08:35:13;5.55;;;3.72;;
65375;SDS011;51976;47.332;9.404;2023-07-29T08:37:39;4.72;;;2.97;;
65375;SDS011;51976;47.332;9.404;2023-07-29T08:40:04;4.72;;;3.25;;
65375;SDS011;51976;47.332;9.404;2023-07-29T08:42:31;4.05;;;3.10;;
65375;SDS011;51976;47.332;9.404;2023-07-29T08:44:59;5.88;;;3.40;;
65375;SDS011;51976;47.332;9.404;2023-07-29T08:47:30;5.05;;;3.25;;
65375;SDS011;51976;47.332;9.404;2023-07-29T08:49:56;5.55;;;3.22;;
65375;SDS011;51976;47.332;9.404;2023-07-29T08:52:22;5.40;;;2.75;;
65375;SDS011;51976;47.332;9.404;2023-07-29T08:54:49;3.70;;;2.60;;
65375;SDS011;51976;47.332;9.404;2023-07-29T08:57:15;5.15;;;2.65;;
65375;SDS011;51976;47.332;9.404;2023-07-29T08:59:41;6.20;;;3.20;;
65375;SDS011;51976;47.332;9.404;2023-07-29T09:02:07;5.00;;;3.20;;
65375;SDS011;51976;47.332;9.404;2023-07-29T09:04:33;3.75;;;2.55;;
65375;SDS011;51976;47.332;9.404;2023-07-29T09:06:58;3.28;;;2.17;;
65375;SDS011;51976;47.332;9.404;2023-07-29T09:09:25;4.50;;;2.35;;
65375;SDS011;51976;47.332;9.404;2023-07-29T09:11:50;4.47;;;2.20;;
65375;SDS011;51976;47.332;9.404;2023-07-29T09:14:16;4.88;;;2.20;;
65375;SDS011;51976;47.332;9.404;2023-07-29T09:16:43;3.50;;;2.08;;
65375;SDS011;51976;47.332;9.404;2023-07-29T09:19:09;2.50;;;2.00;;
65375;SDS011;51976;47.332;9.404;2023-07-29T09:21:34;3.45;;;2.30;;
65375;SDS011;51976;47.332;9.404;2023-07-29T09:24:05;3.63;;;2.17;;
65375;SDS011;51976;47.332;9.404;2023-07-29T09:26:32;3.22;;;2.15;;
65375;SDS011;51976;47.332;9.404;2023-07-29T09:28:58;4.22;;;2.15;;
65375;SDS011;51976;47.332;9.404;2023-07-29T09:31:26;3.15;;;2.50;;
65375;SDS011;51976;47.332;9.404;2023-07-29T09:33:55;6.32;;;3.00;;
65375;SDS011;51976;47.332;9.404;2023-07-29T09:36:23;4.82;;;3.00;;
65375;SDS011;51976;47.332;9.404;2023-07-29T09:38:51;4.00;;;2.60;;
65375;SDS011;51976;47.332;9.404;2023-07-29T09:41:21;3.15;;;2.25;;
65375;SDS011;51976;47.332;9.404;2023-07-29T09:44:00;4.85;;;2.35;;
65375;SDS011;51976;47.332;9.404;2023-07-29T09:46:33;3.58;;;2.38;;
65375;SDS011;51976;47.332;9.404;2023-07-29T09:49:03;4.30;;;2.85;;
65375;SDS011;51976;47.332;9.404;2023-07-29T09:51:30;3.22;;;2.40;;
65375;SDS011;51976;47.332;9.404;2023-07-29T09:53:56;2.65;;;2.10;;
65375;SDS011;51976;47.332;9.404;2023-07-29T09:56:24;4.45;;;2.70;;
65375;SDS011;51976;47.332;9.404;2023-07-29T09:58:51;4.43;;;2.40;;
65375;SDS011;51976;47.332;9.404;2023-07-29T10:01:17;3.80;;;2.33;;
65375;SDS011;51976;47.332;9.404;2023-07-29T10:03:43;4.25;;;2.30;;
65375;SDS011;51976;47.332;9.404;2023-07-29T10:06:09;3.78;;;2.38;;
65375;SDS011;51976;47.332;9.404;2023-07-29T10:08:36;4.82;;;3.15;;
65375;SDS011;51976;47.332;9.404;2023-07-29T10:11:05;4.35;;;3.33;;
65375;SDS011;51976;47.332;9.404;2023-07-29T10:13:31;4.13;;;2.60;;
65375;SDS011;51976;47.332;9.404;2023-07-29T10:15:58;5.70;;;3.38;;
65375;SDS011;51976;47.332;9.404;2023-07-29T10:18:24;3.95;;;2.72;;
65375;SDS011;51976;47.332;9.404;2023-07-29T10:20:50;6.45;;;3.17;;
65375;SDS011;51976;47.332;9.404;2023-07-29T10:23:17;4.05;;;2.70;;
65375;SDS011;51976;47.332;9.404;2023-07-29T10:25:46;4.03;;;3.17;;
65375;SDS011;51976;47.332;9.404;2023-07-29T10:28:15;4.00;;;2.75;;
65375;SDS011;51976;47.332;9.404;2023-07-29T10:30:42;3.70;;;2.22;;
65375;SDS011;51976;47.332;9.404;2023-07-29T10:33:08;3.30;;;2.22;;
65375;SDS011;51976;47.332;9.404;2023-07-29T10:35:35;4.60;;;2.60;;
65375;SDS011;51976;47.332;9.404;2023-07-29T10:38:02;4.53;;;2.97;;
65375;SDS011;51976;47.332;9.404;2023-07-29T10:40:50;4.88;;;2.38;;
65375;SDS011;51976;47.332;9.404;2023-07-29T10:43:18;3.28;;;2.60;;
65375;SDS011;51976;47.332;9.404;2023-07-29T10:45:49;3.03;;;2.50;;
65375;SDS011;51976;47.332;9.404;2023-07-29T10:51:22;5.63;;;3.47;;
65375;SDS011;51976;47.332;9.404;2023-07-29T10:53:54;5.38;;;2.72;;
65375;SDS011;51976;47.332;9.404;2023-07-29T10:56:32;6.55;;;2.90;;
65375;SDS011;51976;47.332;9.404;2023-07-29T10:59:02;4.13;;;3.00;;
65375;SDS011;51976;47.332;9.404;2023-07-29T11:01:57;5.38;;;3.17;;
65375;SDS011;51976;47.332;9.404;2023-07-29T11:04:24;4.30;;;2.55;;
65375;SDS011;51976;47.332;9.404;2023-07-29T11:09:52;5.68;;;2.75;;
65375;SDS011;51976;47.332;9.404;2023-07-29T11:15:17;4.00;;;2.67;;
65375;SDS011;51976;47.332;9.404;2023-07-29T11:17:49;4.53;;;2.90;;
65375;SDS011;51976;47.332;9.404;2023-07-29T11:20:20;3.17;;;2.42;;
65375;SDS011;51976;47.332;9.404;2023-07-29T11:22:56;3.92;;;2.72;;
65375;SDS011;51976;47.332;9.404;2023-07-29T11:25:23;6.72;;;3.10;;
65375;SDS011;51976;47.332;9.404;2023-07-29T11:27:52;4.95;;;2.45;;
65375;SDS011;51976;47.332;9.404;2023-07-29T11:30:19;5.90;;;2.40;;
65375;SDS011;51976;47.332;9.404;2023-07-29T11:32:45;3.95;;;2.60;;
65375;SDS011;51976;47.332;9.404;2023-07-29T11:35:12;3.65;;;2.80;;
65375;SDS011;51976;47.332;9.404;2023-07-29T11:37:43;5.20;;;2.85;;
65375;SDS011;51976;47.332;9.404;2023-07-29T11:40:13;3.75;;;2.60;;
65375;SDS011;51976;47.332;9.404;2023-07-29T11:42:40;4.47;;;2.97;;
65375;SDS011;51976;47.332;9.404;2023-07-29T11:45:06;4.95;;;2.90;;
65375;SDS011;51976;47.332;9.404;2023-07-29T11:47:32;3.40;;;2.78;;
65375;SDS011;51976;47.332;9.404;2023-07-29T11:50:02;4.97;;;3.58;;
65375;SDS011;51976;47.332;9.404;2023-07-29T11:52:31;5.63;;;2.70;;
65375;SDS011;51976;47.332;9.404;2023-07-29T11:55:00;2.72;;;2.38;;
65375;SDS011;51976;47.332;9.404;2023-07-29T11:57:27;5.03;;;2.83;;
65375;SDS011;51976;47.332;9.404;2023-07-29T11:59:53;4.30;;;2.90;;
65375;SDS011;51976;47.332;9.404;2023-07-29T12:02:19;3.40;;;2.72;;
65375;SDS011;51976;47.332;9.404;2023-07-29T12:04:46;3.83;;;2.90;;
65375;SDS011;51976;47.332;9.404;2023-07-29T12:07:13;4.95;;;2.40;;
65375;SDS011;51976;47.332;9.404;2023-07-29T12:09:40;4.30;;;3.08;;
65375;SDS011;51976;47.332;9.404;2023-07-29T12:12:06;3.42;;;2.72;;
65375;SDS011;51976;47.332;9.404;2023-07-29T12:14:32;3.45;;;2.60;;
65375;SDS011;51976;47.332;9.404;2023-07-29T12:17:02;3.55;;;2.58;;
65375;SDS011;51976;47.332;9.404;2023-07-29T12:19:32;5.05;;;3.08;;
65375;SDS011;51976;47.332;9.404;2023-07-29T12:21:59;3.53;;;2.65;;
65375;SDS011;51976;47.332;9.404;2023-07-29T12:24:25;5.72;;;3.35;;
65375;SDS011;51976;47.332;9.404;2023-07-29T12:26:51;8.02;;;2.95;;
65375;SDS011;51976;47.332;9.404;2023-07-29T12:29:17;5.78;;;3.28;;
65375;SDS011;51976;47.332;9.404;2023-07-29T12:31:47;3.53;;;2.80;;
65375;SDS011;51976;47.332;9.404;2023-07-29T12:34:19;6.07;;;3.67;;
65375;SDS011;51976;47.332;9.404;2023-07-29T12:36:48;7.68;;;3.00;;
65375;SDS011;51976;47.332;9.404;2023-07-29T12:39:18;6.40;;;2.95;;
65375;SDS011;51976;47.332;9.404;2023-07-29T12:41:45;6.55;;;3.22;;
65375;SDS011;51976;47.332;9.404;2023-07-29T12:44:12;7.88;;;3.45;;
65375;SDS011;51976;47.332;9.404;2023-07-29T12:46:37;4.90;;;1.23;;
65375;SDS011;51976;47.332;9.404;2023-07-29T12:49:03;3.55;;;1.73;;
65375;SDS011;51976;47.332;9.404;2023-07-29T12:51:28;3.80;;;2.10;;
65375;SDS011;51976;47.332;9.404;2023-07-29T12:53:54;3.70;;;2.30;;
65375;SDS011;51976;47.332;9.404;2023-07-29T12:56:19;3.08;;;2.00;;
65375;SDS011;51976;47.332;9.404;2023-07-29T12:58:45;3.42;;;1.83;;
65375;SDS011;51976;47.332;9.404;2023-07-29T13:01:10;2.92;;;1.48;;
65375;SDS011;51976;47.332;9.404;2023-07-29T13:03:41;2.22;;;1.52;;
65375;SDS011;51976;47.332;9.404;2023-07-29T13:06:07;3.50;;;1.60;;
65375;SDS011;51976;47.332;9.404;2023-07-29T13:08:32;2.38;;;1.67;;
65375;SDS011;51976;47.332;9.404;2023-07-29T13:10:58;1.90;;;1.50;;
65375;SDS011;51976;47.332;9.404;2023-07-29T13:13:23;9.35;;;2.13;;
65375;SDS011;51976;47.332;9.404;2023-07-29T13:15:49;5.57;;;1.90;;
65375;SDS011;51976;47.332;9.404;2023-07-29T13:18:14;2.85;;;1.85;;
65375;SDS011;51976;47.332;9.404;2023-07-29T13:20:40;3.25;;;2.05;;
65375;SDS011;51976;47.332;9.404;2023-07-29T13:23:05;3.42;;;1.90;;
65375;SDS011;51976;47.332;9.404;2023-07-29T13:25:30;2.33;;;1.67;;
65375;SDS011;51976;47.332;9.404;2023-07-29T13:27:56;2.35;;;1.55;;
65375;SDS011;51976;47.332;9.404;2023-07-29T13:30:21;2.17;;;1.33;;
65375;SDS011;51976;47.332;9.404;2023-07-29T13:32:46;2.88;;;1.50;;
65375;SDS011;51976;47.332;9.404;2023-07-29T13:35:12;3.70;;;1.10;;
65375;SDS011;51976;47.332;9.404;2023-07-29T13:37:37;2.03;;;1.30;;
65375;SDS011;51976;47.332;9.404;2023-07-29T13:40:03;4.85;;;1.63;;
65375;SDS011;51976;47.332;9.404;2023-07-29T13:42:28;5.85;;;3.00;;
65375;SDS011;51976;47.332;9.404;2023-07-29T13:44:54;6.93;;;3.25;;
65375;SDS011;51976;47.332;9.404;2023-07-29T13:47:19;3.72;;;1.80;;
65375;SDS011;51976;47.332;9.404;2023-07-29T13:49:45;5.50;;;2.03;;
65375;SDS011;51976;47.332;9.404;2023-07-29T13:52:10;3.30;;;1.80;;
65375;SDS011;51976;47.332;9.404;2023-07-29T13:54:35;3.45;;;1.67;;
65375;SDS011;51976;47.332;9.404;2023-07-29T13:57:01;2.95;;;1.70;;
65375;SDS011;51976;47.332;9.404;2023-07-29T13:59:26;2.13;;;1.40;;
65375;SDS011;51976;47.332;9.404;2023-07-29T14:01:52;2.25;;;1.40;;
65375;SDS011;51976;47.332;9.404;2023-07-29T14:04:17;3.58;;;2.00;;
65375;SDS011;51976;47.332;9.404;2023-07-29T14:06:42;3.30;;;1.63;;
65375;SDS011;51976;47.332;9.404;2023-07-29T14:09:08;2.25;;;1.45;;
65375;SDS011;51976;47.332;9.404;2023-07-29T14:11:33;3.65;;;1.40;;
65375;SDS011;51976;47.332;9.404;2023-07-29T14:13:59;2.00;;;1.30;;
65375;SDS011;51976;47.332;9.404;2023-07-29T14:16:24;2.53;;;1.65;;
65375;SDS011;51976;47.332;9.404;2023-07-29T14:18:49;2.83;;;1.55;;
65375;SDS011;51976;47.332;9.404;2023-07-29T14:21:15;2.05;;;1.58;;
65375;SDS011;51976;47.332;9.404;2023-07-29T14:23:40;2.88;;;1.40;;
65375;SDS011;51976;47.332;9.404;2023-07-29T14:26:06;3.55;;;1.58;;
65375;SDS011;51976;47.332;9.404;2023-07-29T14:28:35;2.85;;;1.40;;
65375;SDS011;51976;47.332;9.404;2023-07-29T14:31:00;3.30;;;1.77;;
65375;SDS011;51976;47.332;9.404;2023-07-29T14:33:26;2.45;;;1.40;;
65375;SDS011;51976;47.332;9.404;2023-07-29T14:35:51;3.22;;;1.60;;
65375;SDS011;51976;47.332;9.404;2023-07-29T14:38:16;2.15;;;1.60;;
65375;SDS011;51976;47.332;9.404;2023-07-29T14:40:42;2.78;;;1.40;;
65375;SDS011;51976;47.332;9.404;2023-07-29T14:43:07;2.67;;;1.45;;
65375;SDS011;51976;47.332;9.404;2023-07-29T14:45:33;2.92;;;1.38;;
65375;SDS011;51976;47.332;9.404;2023-07-29T14:47:58;2.20;;;1.33;;
65375;SDS011;51976;47.332;9.404;2023-07-29T14:50:23;2.78;;;1.52;;
65375;SDS011;51976;47.332;9.404;2023-07-29T14:52:49;3.42;;;1.50;;